Time;durP1;ratioP1;P1;durP2;ratioP2;P2;SDS_P1;SDS_P2;PMS_P1;PMS_P2;Temp;Humidity;BMP_temperature;BMP_pressure;BME280_temperature;BME280_humidity;BME280_pressure;Samples;Min_cycle;Max_cycle;Signal;HPM_P1;HPM_P2
2023/01/10 00:00:34;;;;;;;105.50;60.60;;;;;;;4.24;100.00;98786.56;5054102;28;20064;-77
2023/01/10 00:03:04;;;;;;;113.72;65.35;;;;;;;4.25;100.00;98789.06;5054057;28;20602;-77
2023/01/10 00:05:30;;;;;;;100.22;58.45;;;;;;;4.23;100.00;98788.31;5054162;28;20384;-77
2023/01/10 00:07:57;;;;;;;95.82;56.05;;;;;;;4.23;100.00;98790.88;5053982;28;20021;-77
2023/01/10 00:10:23;;;;;;;91.10;53.67;;;;;;;4.27;100.00;98795.94;5053615;28;20496;-77
2023/01/10 00:15:35;;;;;;;90.32;53.75;;;;;;;4.25;100.00;98788.25;5053874;28;20124;-77
2023/01/10 00:18:00;;;;;;;98.32;56.83;;;;;;;4.21;100.00;98789.25;5053607;28;20507;-77
2023/01/10 00:20:25;;;;;;;96.13;55.53;;;;;;;4.20;100.00;98797.88;5053367;28;20059;-77
2023/01/10 00:22:51;;;;;;;79.90;51.95;;;;;;;4.20;100.00;98798.72;5053418;28;20017;-77
2023/01/10 00:25:18;;;;;;;84.47;52.33;;;;;;;4.24;100.00;98808.03;5053651;28;20025;-77
2023/01/10 00:27:48;;;;;;;80.97;51.03;;;;;;;4.15;100.00;98794.63;5053459;28;20029;-77
2023/01/10 00:30:13;;;;;;;78.32;50.15;;;;;;;4.15;100.00;98792.88;5053391;28;20032;-77
2023/01/10 00:32:43;;;;;;;79.43;50.90;;;;;;;4.20;100.00;98806.44;5053394;28;20013;-77
2023/01/10 00:35:10;;;;;;;76.20;50.78;;;;;;;4.12;100.00;98795.56;5053350;28;20039;-77
2023/01/10 00:37:36;;;;;;;82.15;51.78;;;;;;;4.14;100.00;98804.09;5053555;28;20040;-77
2023/01/10 00:40:02;;;;;;;81.25;50.45;;;;;;;4.18;100.00;98821.13;5053219;28;20056;-77
2023/01/10 00:45:11;;;;;;;74.93;49.13;;;;;;;4.20;100.00;98816.75;5053286;28;20106;-77
2023/01/10 00:47:37;;;;;;;75.82;47.00;;;;;;;4.16;100.00;98825.47;5052966;28;20452;-77
2023/01/10 00:50:07;;;;;;;72.13;46.83;;;;;;;4.19;100.00;98830.53;5053362;28;20031;-77
2023/01/10 00:52:33;;;;;;;75.50;49.13;;;;;;;4.12;100.00;98817.91;5052997;28;20047;-77
2023/01/10 00:54:58;;;;;;;72.72;48.40;;;;;;;4.18;100.00;98833.19;5053174;28;20025;-77
2023/01/10 00:57:23;;;;;;;71.05;45.75;;;;;;;4.13;100.00;98830.75;5052955;28;20056;-77
2023/01/10 00:59:49;;;;;;;75.10;48.08;;;;;;;4.15;100.00;98835.84;5053130;28;20096;-77
2023/01/10 01:02:14;;;;;;;69.78;45.60;;;;;;;4.18;100.00;98843.50;5052899;28;20025;-77
2023/01/10 01:04:39;;;;;;;71.75;45.30;;;;;;;4.14;100.00;98852.22;5051835;28;20028;-77
2023/01/10 01:07:05;;;;;;;70.10;46.00;;;;;;;4.06;100.00;98843.91;5052979;28;20074;-77
2023/01/10 01:09:30;;;;;;;75.18;44.35;;;;;;;4.08;100.00;98853.25;5052247;28;20376;-77
2023/01/10 01:11:55;;;;;;;67.13;43.47;;;;;;;4.04;100.00;98846.50;5053184;28;20025;-77
2023/01/10 01:14:22;;;;;;;77.07;45.28;;;;;;;4.03;100.00;98849.16;5052617;28;20017;-77
2023/01/10 01:16:48;;;;;;;78.07;46.20;;;;;;;3.98;100.00;98844.97;5052800;28;20449;-77
2023/01/10 01:19:13;;;;;;;67.32;42.47;;;;;;;4.06;100.00;98855.03;5052163;28;20100;-77
2023/01/10 01:21:38;;;;;;;64.65;41.47;;;;;;;4.06;100.00;98855.03;5052696;28;20401;-77
2023/01/10 01:24:04;;;;;;;65.88;41.33;;;;;;;4.08;100.00;98860.97;5052482;28;20092;-77
2023/01/10 01:26:29;;;;;;;68.82;42.30;;;;;;;4.04;100.00;98850.81;5052425;28;20120;-77
2023/01/10 01:28:55;;;;;;;73.60;44.13;;;;;;;4.09;100.00;98862.69;5052403;28;20025;-77
2023/01/10 01:31:20;;;;;;;61.78;39.53;;;;;;;4.04;100.00;98861.13;5052358;28;20027;-77
2023/01/10 01:33:46;;;;;;;63.40;39.15;;;;;;;4.07;100.00;98867.03;5052377;28;20634;-77
2023/01/10 01:36:12;;;;;;;68.90;41.28;;;;;;;4.13;100.00;98876.28;5052225;28;20027;-77
2023/01/10 01:38:38;;;;;;;62.72;40.65;;;;;;;4.11;100.00;98873.75;5052273;28;20060;-77
2023/01/10 01:41:55;;;;;;;72.50;40.22;;;;;;;4.15;100.00;98879.66;5052050;28;20033;-78
2023/01/10 01:44:02;;;;;;;71.43;40.20;;;;;;;4.16;100.00;98887.34;5052243;28;20431;-77
2023/01/10 01:46:29;;;;;;;61.70;34.95;;;;;;;4.09;100.00;98875.56;5052023;28;20103;-77
2023/01/10 01:48:54;;;;;;;48.70;29.73;;;;;;;4.15;100.00;98887.41;5052137;28;20368;-77
2023/01/10 01:51:25;;;;;;;43.30;27.20;;;;;;;4.12;100.00;98877.19;5052170;28;20024;-77
2023/01/10 01:53:55;;;;;;;39.47;25.67;;;;;;;4.08;100.00;98876.44;5052161;28;20017;-77
2023/01/10 01:56:33;;;;;;;34.45;21.35;;;;;;;4.10;100.00;98879.81;5052218;28;20013;-77
2023/01/10 01:59:05;;;;;;;34.58;21.58;;;;;;;4.04;100.00;98874.00;5052032;28;20024;-77
2023/01/10 02:01:32;;;;;;;29.42;18.23;;;;;;;4.07;100.00;98890.22;5051710;28;20021;-77
2023/01/10 02:04:09;;;;;;;24.33;16.02;;;;;;;4.01;100.00;98882.69;5052023;28;20099;-77
2023/01/10 02:06:35;;;;;;;19.10;13.48;;;;;;;4.07;100.00;98894.53;5051941;28;20025;-77
2023/01/10 02:09:17;;;;;;;22.90;14.20;;;;;;;4.06;100.00;98892.84;5052063;28;20078;-77
2023/01/10 02:11:43;;;;;;;20.05;12.27;;;;;;;3.99;100.00;98885.31;5051957;28;20029;-77
2023/01/10 02:14:10;;;;;;;19.80;12.30;;;;;;;3.98;100.00;98883.63;5051785;28;20111;-77
2023/01/10 02:16:36;;;;;;;19.05;12.50;;;;;;;4.05;100.00;98891.19;5051967;28;20605;-77
2023/01/10 02:19:02;;;;;;;17.58;11.27;;;;;;;3.96;100.00;98879.41;5052106;28;20067;-77
2023/01/10 02:21:46;;;;;;;14.75;10.77;;;;;;;4.09;100.00;98905.63;5051574;28;20017;-77
2023/01/10 02:24:47;;;;;;;19.10;11.68;;;;;;;4.01;100.00;98893.00;5051822;28;20024;-77
2023/01/10 02:27:18;;;;;;;;;;;;;;;4.10;100.00;98904.75;5052706;28;20066;-77
2023/01/10 02:30:02;;;;;;;16.90;10.88;;;;;;;4.09;100.00;98905.63;5051910;28;19904;-77
2023/01/10 02:32:32;;;;;;;15.45;9.80;;;;;;;4.10;100.00;98909.91;5051460;28;20025;-77
2023/01/10 02:35:14;;;;;;;19.33;10.05;;;;;;;4.13;100.00;98920.97;5051655;28;20025;-77
2023/01/10 02:37:45;;;;;;;13.90;9.68;;;;;;;4.17;100.00;98921.69;5052138;28;20358;-77
2023/01/10 02:40:25;;;;;;;14.75;11.38;;;;;;;4.21;100.00;98923.25;5051749;28;20021;-77
2023/01/10 02:43:08;;;;;;;15.57;10.65;;;;;;;4.22;100.00;98928.38;5051615;28;20037;-77
2023/01/10 02:45:40;;;;;;;17.13;11.27;;;;;;;4.22;100.00;98915.50;5051302;28;20468;-77
2023/01/10 02:48:05;;;;;;;15.57;10.43;;;;;;;4.28;100.00;98931.66;5051546;28;20036;-77
2023/01/10 02:50:40;;;;;;;16.15;12.48;;;;;;;4.33;100.00;98929.75;5051293;28;20021;-77
2023/01/10 02:53:17;;;;;;;15.50;11.27;;;;;;;4.31;100.00;98926.41;5051432;28;20104;-77
2023/01/10 02:55:45;;;;;;;16.02;9.98;;;;;;;4.38;100.00;98938.19;5050046;28;20346;-77
2023/01/10 02:58:55;;;;;;;17.17;10.35;;;;;;;4.30;100.00;98925.56;5051464;28;20033;-77
2023/01/10 03:01:55;;;;;;;17.10;10.13;;;;;;;4.40;100.00;98949.31;5028954;28;20026;-77
2023/01/10 03:04:44;;;;;;;14.33;9.40;;;;;;;4.41;100.00;98949.25;5029237;28;20033;-77
2023/01/10 03:07:36;;;;;;;14.38;9.65;;;;;;;4.35;100.00;98939.16;5033025;28;20304;-77
2023/01/10 03:10:07;;;;;;;16.40;8.90;;;;;;;4.43;100.00;98959.53;5032937;28;20037;-77
2023/01/10 03:12:38;;;;;;;15.57;9.60;;;;;;;4.45;100.00;98962.88;5032602;28;20481;-77
2023/01/10 03:15:05;;;;;;;13.93;9.40;;;;;;;4.40;100.00;98954.47;5032769;28;20028;-77
2023/01/10 03:17:31;;;;;;;17.23;9.57;;;;;;;4.47;100.00;98976.59;5032398;28;20036;-77
2023/01/10 03:20:01;;;;;;;13.98;9.18;;;;;;;4.49;100.00;98974.78;5032566;28;20025;-77
2023/01/10 03:22:29;;;;;;;11.65;8.43;;;;;;;4.48;100.00;98978.25;5032112;28;20040;-77
2023/01/10 03:24:58;;;;;;;16.23;10.02;;;;;;;4.46;100.00;98980.03;5032554;28;20109;-77
2023/01/10 03:27:42;;;;;;;14.93;9.70;;;;;;;4.48;100.00;98984.25;5032631;28;20489;-77
2023/01/10 03:30:42;;;;;;;13.57;9.43;;;;;;;4.51;100.00;98993.66;5032942;28;20059;-77
2023/01/10 03:33:10;;;;;;;15.47;9.57;;;;;;;4.43;100.00;98982.72;5032652;28;20034;-77
2023/01/10 03:35:49;;;;;;;13.93;9.25;;;;;;;4.53;100.00;98998.75;5045647;28;20052;-77
2023/01/10 03:38:25;;;;;;;17.00;11.15;;;;;;;4.48;100.00;98999.72;5054729;28;20048;-77
2023/01/10 03:41:13;;;;;;;15.65;9.80;;;;;;;4.53;100.00;99011.63;5054652;28;20052;-77
2023/01/10 03:46:56;;;;;;;12.93;8.20;;;;;;;4.55;100.00;99031.34;5032486;28;20160;-77
2023/01/10 03:49:24;;;;;;;11.82;7.97;;;;;;;4.52;100.00;99028.84;5031834;28;20037;-77
2023/01/10 03:51:51;;;;;;;15.68;8.27;;;;;;;4.49;100.00;99024.63;5031955;28;20022;-77
2023/01/10 03:54:17;;;;;;;11.10;7.70;;;;;;;4.57;100.00;99042.44;5031936;28;20080;-77
2023/01/10 03:56:48;;;;;;;15.20;8.18;;;;;;;4.50;100.00;99030.63;5031651;28;20116;-77
2023/01/10 03:59:15;;;;;;;12.82;8.18;;;;;;;4.60;100.00;99049.25;5031905;28;20017;-77
2023/01/10 04:01:40;;;;;;;13.02;8.63;;;;;;;4.59;100.00;99050.94;5031346;28;20171;-77
2023/01/10 04:04:05;;;;;;;11.35;7.65;;;;;;;4.53;100.00;99043.41;5031918;28;20105;-77
2023/01/10 04:06:31;;;;;;;12.52;8.00;;;;;;;4.49;100.00;99042.66;5031638;28;20021;-77
2023/01/10 04:08:56;;;;;;;12.55;8.07;;;;;;;4.53;100.00;99069.22;5031511;28;20792;-77
2023/01/10 04:11:21;;;;;;;13.75;8.73;;;;;;;4.50;100.00;99058.97;5031787;28;20037;-78
2023/01/10 04:13:47;;;;;;;11.73;8.15;;;;;;;4.54;100.00;99070.88;5031562;28;20032;-77
2023/01/10 04:16:13;;;;;;;10.95;7.45;;;;;;;4.52;100.00;99072.69;5030366;28;20117;-77
2023/01/10 04:18:38;;;;;;;12.65;7.97;;;;;;;4.52;100.00;99072.69;5031073;28;20408;-77
2023/01/10 04:21:03;;;;;;;9.57;6.95;;;;;;;4.47;100.00;99078.00;5046131;28;20040;-77
2023/01/10 04:23:29;;;;;;;10.40;7.18;;;;;;;4.49;100.00;99076.19;5053728;28;20021;-77
2023/01/10 04:25:54;;;;;;;11.68;7.43;;;;;;;4.45;100.00;99073.75;5053893;28;20032;-77
2023/01/10 04:28:19;;;;;;;11.35;7.07;;;;;;;4.52;100.00;99080.41;5053773;28;20041;-77
2023/01/10 04:30:45;;;;;;;13.80;7.97;;;;;;;4.47;100.00;99082.31;5053427;28;20151;-77
2023/01/10 04:33:11;;;;;;;12.60;7.88;;;;;;;4.51;100.00;99094.22;5053583;28;20031;-77
2023/01/10 04:35:37;;;;;;;11.48;7.20;;;;;;;4.49;100.00;99093.41;5053052;28;20422;-77
2023/01/10 04:38:02;;;;;;;11.27;7.95;;;;;;;4.52;100.00;99107.94;5053468;28;20115;-77
2023/01/10 04:40:28;;;;;;;12.80;7.90;;;;;;;4.50;100.00;99103.66;5053217;28;20059;-77
2023/01/10 04:42:53;;;;;;;7.90;6.35;;;;;;;4.47;100.00;99103.78;5053457;28;20047;-77
2023/01/10 04:45:20;;;;;;;9.25;6.18;;;;;;;4.47;100.00;99108.09;5053480;28;20104;-77
2023/01/10 04:47:50;;;;;;;10.57;6.70;;;;;;;4.48;100.00;99113.19;5052726;28;20021;-77
2023/01/10 04:50:16;;;;;;;8.13;6.53;;;;;;;4.47;100.00;99113.25;5053249;28;20023;-77
2023/01/10 04:52:42;;;;;;;12.05;7.15;;;;;;;4.46;100.00;99119.28;5053282;28;20025;-77
2023/01/10 04:55:08;;;;;;;12.68;8.40;;;;;;;4.55;100.00;99143.94;5053165;28;20029;-77
2023/01/10 04:57:34;;;;;;;15.20;9.05;;;;;;;4.55;100.00;99139.66;5052875;28;20027;-77
2023/01/10 04:59:59;;;;;;;15.60;7.72;;;;;;;4.60;100.00;99149.81;5052840;28;20024;-77
2023/01/10 05:02:25;;;;;;;9.73;7.35;;;;;;;4.60;100.00;99150.66;5052739;28;20475;-77
2023/01/10 05:04:50;;;;;;;9.93;6.95;;;;;;;4.61;100.00;99157.50;5052926;28;20108;-77
2023/01/10 05:07:15;;;;;;;12.27;6.90;;;;;;;4.63;100.00;99160.03;5053134;28;20025;-77
2023/01/10 05:09:41;;;;;;;11.95;8.02;;;;;;;4.61;100.00;99160.09;5052534;28;20039;-77
2023/01/10 05:12:07;;;;;;;10.10;7.32;;;;;;;4.62;100.00;99160.94;5051625;28;20021;-78
2023/01/10 05:14:32;;;;;;;8.68;5.72;;;;;;;4.64;100.00;99169.47;5052655;28;20035;-78
2023/01/10 05:16:58;;;;;;;8.48;6.40;;;;;;;4.62;100.00;99169.50;5052892;28;20017;-77
2023/01/10 05:19:23;;;;;;;7.63;5.63;;;;;;;4.62;100.00;99168.66;5052787;28;20025;-77
2023/01/10 05:21:50;;;;;;;18.15;9.38;;;;;;;4.62;100.00;99166.09;5052471;28;20045;-78
2023/01/10 05:24:16;;;;;;;17.08;9.52;;;;;;;4.68;100.00;99183.97;5052605;28;20091;-77
2023/01/10 05:26:42;;;;;;;9.68;6.45;;;;;;;4.67;100.00;99183.09;5052324;28;20068;-77
2023/01/10 05:29:10;;;;;;;10.70;6.20;;;;;;;4.61;100.00;99179.88;5052144;28;20025;-77
2023/01/10 05:31:35;;;;;;;14.02;7.60;;;;;;;4.68;100.00;99192.56;5052297;28;20074;-77
2023/01/10 05:34:00;;;;;;;8.27;6.40;;;;;;;4.66;100.00;99201.22;5052658;28;20408;-78
2023/01/10 05:36:26;;;;;;;9.05;5.93;;;;;;;4.65;100.00;99218.44;5052091;28;20024;-78
2023/01/10 05:38:51;;;;;;;12.23;7.55;;;;;;;4.60;100.00;99201.41;5052184;28;20055;-78
2023/01/10 05:41:16;;;;;;;9.32;6.80;;;;;;;4.62;100.00;99204.78;5052181;28;20049;-77
2023/01/10 05:43:42;;;;;;;9.55;7.03;;;;;;;4.68;100.00;99227.81;5052124;28;20029;-77
2023/01/10 05:46:07;;;;;;;13.57;9.02;;;;;;;4.65;100.00;99221.00;5052548;28;20372;-78
2023/01/10 05:48:33;;;;;;;12.80;8.60;;;;;;;4.63;100.00;99225.34;5052005;28;20029;-77
2023/01/10 05:50:58;;;;;;;13.63;8.65;;;;;;;4.62;100.00;99231.41;5051957;28;20025;-78
2023/01/10 05:53:23;;;;;;;12.63;8.57;;;;;;;4.57;100.00;99220.38;5052320;28;20016;-78
2023/01/10 05:56:08;;;;;;;12.50;8.50;;;;;;;4.62;100.00;99231.41;5051978;28;20025;-78
2023/01/10 05:58:33;;;;;;;15.00;9.00;;;;;;;4.56;100.00;99225.59;5051966;28;20021;-77
2023/01/10 06:00:59;;;;;;;12.90;8.80;;;;;;;4.63;100.00;99240.81;5051957;28;20021;-78
2023/01/10 06:03:25;;;;;;;14.95;8.40;;;;;;;4.56;100.00;99234.19;5051909;28;20027;-78
2023/01/10 06:05:51;;;;;;;15.35;8.35;;;;;;;4.56;100.00;99247.06;5051866;28;20060;-78
2023/01/10 06:08:16;;;;;;;11.23;7.30;;;;;;;4.61;100.00;99255.53;5052009;28;20021;-78
2023/01/10 06:10:42;;;;;;;11.18;7.38;;;;;;;4.59;100.00;99261.59;5051992;28;20033;-78
2023/01/10 06:13:08;;;;;;;14.95;8.13;;;;;;;4.62;100.00;99267.53;5051820;28;20017;-78
2023/01/10 06:15:35;;;;;;;11.45;7.05;;;;;;;4.63;100.00;99274.38;5051491;28;20480;-78
2023/01/10 06:18:00;;;;;;;19.75;7.90;;;;;;;4.64;100.00;99280.41;5051741;28;20105;-78
2023/01/10 06:20:26;;;;;;;16.23;8.40;;;;;;;4.54;100.00;99274.63;5051664;28;20460;-78
2023/01/10 06:22:51;;;;;;;10.73;6.97;;;;;;;4.60;100.00;99291.69;5051671;28;20013;-78
2023/01/10 06:25:16;;;;;;;7.65;5.95;;;;;;;4.57;100.00;99295.19;5050343;28;20368;-78
2023/01/10 06:27:43;;;;;;;11.15;7.40;;;;;;;4.48;100.00;99298.88;5051558;28;20025;-78
2023/01/10 06:30:10;;;;;;;11.93;7.07;;;;;;;4.50;100.00;99297.06;5051685;28;20396;-78
2023/01/10 06:32:36;;;;;;;12.32;6.70;;;;;;;4.53;100.00;99323.69;5051709;28;20047;-78
2023/01/10 06:35:01;;;;;;;8.15;5.97;;;;;;;4.45;100.00;99318.72;5051762;28;20104;-78
2023/01/10 06:37:27;;;;;;;8.25;5.95;;;;;;;4.48;100.00;99326.38;5051721;28;20366;-78
2023/01/10 06:39:52;;;;;;;8.90;6.07;;;;;;;4.42;100.00;99319.63;5052629;28;20025;-78
2023/01/10 06:42:17;;;;;;;10.85;6.68;;;;;;;4.48;100.00;99329.81;5055545;28;20040;-78
2023/01/10 06:44:43;;;;;;;11.40;6.30;;;;;;;4.49;100.00;99334.06;5055897;28;20021;-78
2023/01/10 06:47:08;;;;;;;8.65;6.05;;;;;;;4.50;100.00;99346.06;5055542;28;20017;-78
2023/01/10 06:49:33;;;;;;;7.55;6.05;;;;;;;4.52;100.00;99347.78;5055723;28;20025;-78
2023/01/10 06:51:59;;;;;;;8.63;6.82;;;;;;;4.45;100.00;99341.94;5055449;28;20074;-78
2023/01/10 06:54:24;;;;;;;7.78;5.90;;;;;;;4.53;100.00;99362.38;5055418;28;20070;-78
2023/01/10 06:56:49;;;;;;;8.80;6.45;;;;;;;4.48;100.00;99355.59;5055243;28;20036;-78
2023/01/10 06:59:15;;;;;;;9.05;6.15;;;;;;;4.48;100.00;99358.19;5055491;28;20480;-78
2023/01/10 07:01:40;;;;;;;9.05;6.43;;;;;;;4.53;100.00;99370.09;5055737;28;20112;-78
2023/01/10 07:04:05;;;;;;;6.78;5.75;;;;;;;4.46;100.00;99353.94;5055277;28;20361;-78
2023/01/10 07:06:31;;;;;;;8.93;5.97;;;;;;;4.54;100.00;99376.94;5055399;28;20045;-78
2023/01/10 07:08:56;;;;;;;8.57;6.55;;;;;;;4.55;100.00;99381.22;5055295;28;20052;-78
2023/01/10 07:11:22;;;;;;;9.88;6.78;;;;;;;4.53;100.00;99388.16;5055381;28;20111;-78
2023/01/10 07:13:47;;;;;;;8.60;6.63;;;;;;;4.46;100.00;99375.41;5055166;28;20017;-78
2023/01/10 07:16:15;;;;;;;11.05;6.50;;;;;;;4.53;100.00;99399.31;5055018;28;20112;-77
2023/01/10 07:18:41;;;;;;;11.02;6.50;;;;;;;4.51;100.00;99390.78;5055023;28;20021;-77
2023/01/10 07:21:08;;;;;;;9.68;6.53;;;;;;;4.54;100.00;99400.16;5055014;28;20021;-77
2023/01/10 07:23:34;;;;;;;12.13;7.43;;;;;;;4.52;100.00;99405.38;5054681;28;20021;-78
2023/01/10 07:26:18;;;;;;;10.07;6.57;;;;;;;4.38;100.00;99395.41;5054939;28;20029;-78
2023/01/10 07:28:49;;;;;;;10.48;6.60;;;;;;;4.30;100.00;99397.34;5054522;28;20017;-78
2023/01/10 07:31:15;;;;;;;9.57;6.57;;;;;;;4.30;100.00;99419.66;5054830;28;20032;-78
2023/01/10 07:33:40;;;;;;;10.23;7.13;;;;;;;4.22;100.00;99422.47;5054613;28;20021;-78
2023/01/10 07:36:06;;;;;;;8.57;6.70;;;;;;;4.19;100.00;99431.09;5054808;28;20029;-78
2023/01/10 07:38:31;;;;;;;11.38;7.53;;;;;;;4.15;100.00;99426.06;5054746;28;20017;-78
2023/01/10 07:40:56;;;;;;;11.30;8.13;;;;;;;4.14;100.00;99435.53;5054116;28;20047;-78
2023/01/10 07:43:22;;;;;;;15.02;8.75;;;;;;;4.08;100.00;99425.34;5054555;28;20060;-78
2023/01/10 07:45:47;;;;;;;15.05;9.05;;;;;;;4.14;100.00;99437.25;5054542;28;20025;-78
2023/01/10 07:48:13;;;;;;;16.77;9.00;;;;;;;4.13;100.00;99433.84;5054601;28;20017;-78
2023/01/10 07:50:38;;;;;;;12.15;8.27;;;;;;;4.19;100.00;99443.16;5054008;28;20532;-78
2023/01/10 07:53:05;;;;;;;12.38;8.00;;;;;;;4.11;100.00;99425.28;5054395;28;20024;-78
2023/01/10 07:55:33;;;;;;;14.23;8.43;;;;;;;4.21;100.00;99460.28;5054260;28;20116;-78
2023/01/10 07:57:59;;;;;;;14.73;8.18;;;;;;;4.23;100.00;99452.50;5053903;28;20345;-78
2023/01/10 08:00:24;;;;;;;11.05;7.38;;;;;;;4.20;100.00;99468.03;5054254;28;20070;-78
2023/01/10 08:02:53;;;;;;;12.43;8.05;;;;;;;4.23;100.00;99470.53;5052819;28;20342;-78
2023/01/10 08:05:19;;;;;;;8.90;7.65;;;;;;;4.15;100.00;99459.56;5054227;28;20044;-78
2023/01/10 08:07:44;;;;;;;11.18;8.02;;;;;;;4.22;100.00;99479.19;5053789;28;20025;-78
2023/01/10 08:10:10;;;;;;;12.40;8.15;;;;;;;4.18;100.00;99464.66;5054000;28;20036;-78
2023/01/10 08:12:35;;;;;;;12.13;8.20;;;;;;;4.24;100.00;99478.22;5053992;28;20037;-78
2023/01/10 08:15:01;;;;;;;11.70;8.18;;;;;;;4.20;100.00;99484.34;5054122;28;20031;-78
2023/01/10 08:17:26;;;;;;;12.82;8.02;;;;;;;4.27;100.00;99489.38;5054081;28;20016;-78
2023/01/10 08:19:52;;;;;;;11.85;8.30;;;;;;;4.19;100.00;99487.81;5053655;28;20112;-78
2023/01/10 08:22:17;;;;;;;12.70;7.65;;;;;;;4.22;100.00;99489.47;5053982;28;20017;-78
2023/01/10 08:24:42;;;;;;;12.50;8.00;;;;;;;4.29;100.00;99495.31;5053634;28;20025;-78
2023/01/10 08:27:08;;;;;;;14.60;8.48;;;;;;;4.25;100.00;99494.53;5053778;28;20051;-78
2023/01/10 08:29:33;;;;;;;9.63;7.80;;;;;;;4.34;100.00;99508.94;5054242;28;20457;-78
2023/01/10 08:31:58;;;;;;;10.65;7.93;;;;;;;4.29;100.00;99491.00;5053524;28;20079;-78
2023/01/10 08:34:25;;;;;;;14.32;9.98;;;;;;;4.33;100.00;99496.94;5053716;28;20369;-78
2023/01/10 08:36:52;;;;;;;12.00;8.75;;;;;;;4.36;100.00;99505.47;5053402;28;20371;-78
2023/01/10 08:39:20;;;;;;;13.63;10.65;;;;;;;4.41;100.00;99513.94;5053919;28;20107;-78
2023/01/10 08:41:46;;;;;;;11.10;8.00;;;;;;;4.44;100.00;99513.03;5053098;28;20094;-78
2023/01/10 08:44:12;;;;;;;10.98;7.60;;;;;;;4.42;100.00;99509.63;5053657;28;20200;-78
2023/01/10 08:46:37;;;;;;;9.55;7.13;;;;;;;4.45;100.00;99509.56;5053517;28;20056;-78
2023/01/10 08:49:03;;;;;;;10.23;8.13;;;;;;;4.54;100.00;99523.97;5053371;28;20109;-78
2023/01/10 08:51:28;;;;;;;13.38;7.55;;;;;;;4.53;100.00;99530.84;5053606;28;20039;-78
2023/01/10 08:53:53;;;;;;;10.13;7.25;;;;;;;4.57;100.00;99534.22;5052895;28;20028;-78
2023/01/10 08:56:19;;;;;;;11.60;7.07;;;;;;;4.61;100.00;99543.56;5053139;28;20028;-78
2023/01/10 08:58:44;;;;;;;9.25;6.97;;;;;;;4.62;100.00;99537.53;5053343;28;20020;-78
2023/01/10 09:01:10;;;;;;;8.98;6.95;;;;;;;4.55;100.00;99535.97;5053009;28;20021;-78
2023/01/10 09:03:36;;;;;;;9.68;7.55;;;;;;;4.63;100.00;99549.53;5052408;28;20066;-78
2023/01/10 09:06:01;;;;;;;9.93;7.35;;;;;;;4.64;100.00;99546.09;5052879;28;20108;-78
2023/01/10 09:08:27;;;;;;;13.00;7.82;;;;;;;4.55;100.00;99538.53;5052904;28;20064;-78
2023/01/10 09:10:53;;;;;;;8.25;7.38;;;;;;;4.64;100.00;99552.09;5052502;28;20040;-77
2023/01/10 09:13:19;;;;;;;9.73;7.20;;;;;;;4.60;100.00;99547.88;5052719;28;20365;-78
2023/01/10 09:15:44;;;;;;;11.60;7.97;;;;;;;4.71;100.00;99565.66;5052681;28;20025;-78
2023/01/10 09:18:11;;;;;;;7.97;6.95;;;;;;;4.76;100.00;99561.25;5052730;28;20052;-78
2023/01/10 09:20:39;;;;;;;12.75;7.38;;;;;;;4.79;100.00;99566.34;5052638;28;20029;-78
2023/01/10 09:23:09;;;;;;;11.40;7.57;;;;;;;4.83;100.00;99556.78;5069656;28;20375;-78
2023/01/10 09:25:35;;;;;;;11.40;7.13;;;;;;;4.85;100.00;99571.38;5070125;28;20028;-78
2023/01/10 09:28:02;;;;;;;10.75;7.45;;;;;;;4.83;100.00;99562.78;5069846;28;20068;-78
2023/01/10 09:30:29;;;;;;;11.73;8.80;;;;;;;4.94;100.00;99563.38;5070090;28;20070;-78
2023/01/10 09:32:56;;;;;;;11.20;7.15;;;;;;;4.95;100.00;99583.13;5069895;28;20032;-78
2023/01/10 09:35:24;;;;;;;12.70;8.55;;;;;;;4.91;100.00;99573.78;5070174;28;20029;-78
2023/01/10 09:37:52;;;;;;;14.43;9.32;;;;;;;4.99;100.00;99568.44;5069815;28;20033;-78
2023/01/10 09:40:27;;;;;;;14.75;10.30;;;;;;;4.95;100.00;99567.66;5069885;28;20035;-78
2023/01/10 09:43:14;;;;;;;14.38;9.55;;;;;;;5.00;100.00;99572.69;5069541;28;20481;-78
2023/01/10 09:45:54;;;;;;;14.13;8.82;;;;;;;5.04;100.00;99568.31;5069924;28;20082;-78
2023/01/10 09:48:43;;;;;;;14.40;8.88;;;;;;;5.04;100.00;99576.06;5069822;28;20119;-78
2023/01/10 09:51:24;;;;;;;16.60;9.05;;;;;;;4.97;100.00;99580.50;5069709;28;20108;-78
2023/01/10 09:53:53;;;;;;;14.80;9.27;;;;;;;5.06;100.00;99572.56;5062345;28;20126;-78
2023/01/10 09:56:18;;;;;;;14.77;9.00;;;;;;;5.21;100.00;99597.97;5052164;28;20017;-78
2023/01/10 09:58:44;;;;;;;15.40;7.80;;;;;;;5.21;100.00;99595.38;5052032;28;20074;-78
2023/01/10 10:01:18;;;;;;;9.85;7.40;;;;;;;5.23;100.00;99588.47;5052161;28;20021;-78
2023/01/10 10:04:09;;;;;;;14.95;8.63;;;;;;;5.25;100.00;99597.00;5052025;28;20029;-78
2023/01/10 10:06:34;;;;;;;12.80;8.73;;;;;;;5.08;100.00;99604.34;5051960;28;20027;-78
2023/01/10 10:09:00;;;;;;;9.80;7.40;;;;;;;5.21;100.00;99623.78;5051672;28;20108;-78
2023/01/10 10:11:25;;;;;;;13.43;7.80;;;;;;;5.28;100.00;99637.41;5052092;28;20020;-78
2023/01/10 10:14:06;;;;;;;13.32;8.50;;;;;;;5.20;100.00;99629.84;5051661;28;20024;-78
2023/01/10 10:16:58;;;;;;;;;;;;;;;5.16;100.00;99641.13;5052301;28;20464;-78
2023/01/10 10:19:42;;;;;;;11.15;8.80;;;;;;;5.22;100.00;99641.00;5051643;28;19908;-78
2023/01/10 10:22:11;;;;;;;16.33;9.25;;;;;;;5.17;100.00;99647.13;5051718;28;20032;-78
2023/01/10 10:24:48;;;;;;;10.40;7.40;;;;;;;5.17;100.00;99647.13;5051836;28;20028;-78
2023/01/10 10:27:28;;;;;;;12.30;8.05;;;;;;;5.16;100.00;99633.38;5052062;28;20036;-78
2023/01/10 10:30:10;;;;;;;10.45;7.57;;;;;;;5.16;100.00;99635.97;5051503;28;20475;-78
2023/01/10 10:32:42;;;;;;;11.73;7.30;;;;;;;5.19;100.00;99642.81;5051887;28;20024;-78
2023/01/10 10:35:37;;;;;;;13.52;8.35;;;;;;;5.34;100.00;99654.47;5051463;28;20406;-78
2023/01/10 10:38:25;;;;;;;11.90;7.80;;;;;;;5.29;100.00;99659.75;5051448;28;20025;-78
2023/01/10 10:40:52;;;;;;;11.70;7.50;;;;;;;5.21;100.00;99661.69;5051468;28;20044;-78
2023/01/10 10:43:29;;;;;;;12.07;8.25;;;;;;;5.26;100.00;99658.09;5051680;28;20120;-78
2023/01/10 10:46:04;;;;;;;14.75;9.65;;;;;;;5.20;100.00;99655.66;5051469;28;20360;-78
2023/01/10 10:48:33;;;;;;;16.70;9.38;;;;;;;5.25;100.00;99665.88;5051619;28;20083;-78
2023/01/10 10:51:03;;;;;;;12.75;8.80;;;;;;;5.34;100.00;99662.22;5051433;28;20357;-78
2023/01/10 10:53:31;;;;;;;12.87;9.60;;;;;;;5.28;100.00;99655.47;5051564;28;20025;-78
2023/01/10 10:55:57;;;;;;;12.80;8.38;;;;;;;5.21;100.00;99659.94;5051409;28;20074;-78
2023/01/10 10:58:24;;;;;;;12.85;8.07;;;;;;;5.34;100.00;99664.81;5051505;28;20025;-78
2023/01/10 11:00:50;;;;;;;20.20;10.20;;;;;;;5.38;100.00;99669.84;5051166;28;20052;-78
2023/01/10 11:03:27;;;;;;;12.05;8.45;;;;;;;5.35;100.00;99669.06;5051598;28;20052;-78
2023/01/10 11:05:55;;;;;;;13.90;10.00;;;;;;;5.39;100.00;99662.94;5051482;28;20032;-78
2023/01/10 11:08:22;;;;;;;18.13;9.88;;;;;;;5.39;100.00;99655.19;5051715;28;20017;-78
2023/01/10 11:10:58;;;;;;;16.45;9.63;;;;;;;5.44;100.00;99668.88;5051294;28;20111;-78
2023/01/10 11:13:32;;;;;;;18.90;9.43;;;;;;;5.50;100.00;99671.28;5051441;28;20449;-78
2023/01/10 11:15:59;;;;;;;12.32;8.23;;;;;;;5.61;100.00;99661.53;5051070;28;20465;-78
2023/01/10 11:18:27;;;;;;;16.08;10.57;;;;;;;5.65;100.00;99654.53;5051452;28;20465;-78
2023/01/10 11:20:57;;;;;;;16.63;10.77;;;;;;;5.57;100.00;99644.41;5051140;28;20082;-78
2023/01/10 11:23:48;;;;;;;20.45;12.52;;;;;;;5.74;100.00;99651.72;5051416;28;20114;-78
2023/01/10 11:26:29;;;;;;;23.85;13.18;;;;;;;5.72;100.00;99649.16;5052938;28;20036;-78
2023/01/10 11:29:19;;;;;;;19.80;11.95;;;;;;;5.74;100.00;99662.06;5054727;28;20032;-78
2023/01/10 11:31:46;;;;;;;15.30;9.20;;;;;;;5.76;100.00;99655.94;5054765;28;20029;-78
2023/01/10 11:34:25;;;;;;;15.40;9.38;;;;;;;5.81;100.00;99663.56;5054482;28;20609;-78
2023/01/10 11:37:03;;;;;;;13.00;8.73;;;;;;;5.80;100.00;99672.22;5054666;28;20021;-78
2023/01/10 11:39:29;;;;;;;13.77;8.65;;;;;;;5.79;100.00;99655.00;5054982;28;20112;-78
2023/01/10 11:41:57;;;;;;;19.25;10.93;;;;;;;5.82;100.00;99661.84;5054295;28;20357;-78